Time,TemperatureF,DewpointF,PressureIn,WindDirection,WindDirectionDegrees,WindSpeedMPH,WindSpeedGustMPH,Humidity,HourlyPrecipIn,Conditions,Clouds,dailyrainin,SolarRadiationWatts/m^2,SoftwareType,DateUTC
2013-02-24 00:03:00,34.5,32.0,29.87,NE,46,0.0,-999.0,90,-99.99,,,0.00,0,weatherlink.com 1.10,2013-02-24 05:03:00,
2013-02-24 00:18:00,34.4,32.0,29.87,NE,46,0.0,-999.0,90,-99.99,,,0.00,0,weatherlink.com 1.10,2013-02-24 05:18:00,
2013-02-24 00:33:00,34.3,32.0,29.87,NE,46,0.0,-999.0,90,-99.99,,,0.01,0,weatherlink.com 1.10,2013-02-24 05:33:00,
2013-02-24 00:48:00,34.3,32.0,29.87,NE,46,0.0,-999.0,90,-99.99,,,0.01,0,weatherlink.com 1.10,2013-02-24 05:48:00,
2013-02-24 01:03:00,34.2,32.0,29.86,NE,46,0.0,-999.0,90,-99.99,,,0.01,0,weatherlink.com 1.10,2013-02-24 06:03:00,
2013-02-24 01:18:00,34.0,31.0,29.85,NE,46,0.0,-999.0,90,-99.99,,,0.01,0,weatherlink.com 1.10,2013-02-24 06:18:00,
2013-02-24 01:33:00,33.9,31.0,29.85,NE,46,0.0,-999.0,90,-99.99,,,0.02,0,weatherlink.com 1.10,2013-02-24 06:33:00,
2013-02-24 01:48:00,33.6,31.0,29.85,NE,46,0.0,-999.0,90,-99.99,,,0.02,0,weatherlink.com 1.10,2013-02-24 06:48:00,
2013-02-24 02:03:00,33.5,31.0,29.85,NE,46,2.0,-999.0,91,-99.99,,,0.02,0,weatherlink.com 1.10,2013-02-24 07:03:00,
2013-02-24 02:18:00,33.5,31.0,29.85,NE,46,0.0,-999.0,91,-99.99,,,0.02,0,weatherlink.com 1.10,2013-02-24 07:18:00,
2013-02-24 02:33:00,33.5,31.0,29.84,NE,46,1.0,-999.0,91,-99.99,,,0.02,0,weatherlink.com 1.10,2013-02-24 07:33:00,
2013-02-24 02:48:00,33.4,31.0,29.83,NE,46,0.0,-999.0,91,-99.99,,,0.02,0,weatherlink.com 1.10,2013-02-24 07:48:00,
2013-02-24 03:03:00,33.3,31.0,29.83,NE,46,0.0,-999.0,91,-99.99,,,0.02,0,weatherlink.com 1.10,2013-02-24 08:03:00,
2013-02-24 03:19:00,33.2,31.0,29.82,NE,46,0.0,-999.0,91,-99.99,,,0.02,0,weatherlink.com 1.10,2013-02-24 08:19:00,
2013-02-24 03:33:00,33.0,31.0,29.82,NE,46,0.0,-999.0,91,-99.99,,,0.03,0,weatherlink.com 1.10,2013-02-24 08:33:00,
2013-02-24 03:48:00,33.0,31.0,29.83,NE,46,0.0,-999.0,91,-99.99,,,0.03,0,weatherlink.com 1.10,2013-02-24 08:48:00,
2013-02-24 04:03:00,32.9,31.0,29.84,SSE,152,0.0,-999.0,91,-99.99,,,0.03,0,weatherlink.com 1.10,2013-02-24 09:03:00,
2013-02-24 04:18:00,32.9,31.0,29.84,SSE,152,0.0,-999.0,91,-99.99,,,0.03,0,weatherlink.com 1.10,2013-02-24 09:18:00,
2013-02-24 04:33:00,32.8,31.0,29.83,SSE,152,0.0,-999.0,92,-99.99,,,0.03,0,weatherlink.com 1.10,2013-02-24 09:33:00,
2013-02-24 04:48:00,32.8,31.0,29.82,SSE,152,0.0,-999.0,92,-99.99,,,0.03,0,weatherlink.com 1.10,2013-02-24 09:48:00,
2013-02-24 05:03:00,32.8,31.0,29.84,SSE,152,0.0,-999.0,92,-99.99,,,0.03,0,weatherlink.com 1.10,2013-02-24 10:03:00,
2013-02-24 05:18:00,32.8,31.0,29.82,SSE,152,0.0,-999.0,92,-99.99,,,0.03,0,weatherlink.com 1.10,2013-02-24 10:18:00,
2013-02-24 05:33:00,32.8,31.0,29.82,SSE,152,0.0,-999.0,92,-99.99,,,0.03,0,weatherlink.com 1.10,2013-02-24 10:33:00,
2013-02-24 05:48:00,32.8,31.0,29.82,SSE,152,0.0,-999.0,92,-99.99,,,0.03,0,weatherlink.com 1.10,2013-02-24 10:48:00,
2013-02-24 06:03:00,32.8,31.0,29.82,SSE,152,2.0,-999.0,92,-99.99,,,0.03,0,weatherlink.com 1.10,2013-02-24 11:03:00,
2013-02-24 06:18:00,32.9,31.0,29.82,West,260,2.0,-999.0,92,-99.99,,,0.03,0,weatherlink.com 1.10,2013-02-24 11:18:00,
2013-02-24 06:33:00,32.9,31.0,29.83,NNE,18,2.0,-999.0,92,-99.99,,,0.03,0,weatherlink.com 1.10,2013-02-24 11:33:00,
2013-02-24 06:48:00,32.4,30.0,29.83,WNW,303,2.0,-999.0,92,-99.99,,,0.03,0,weatherlink.com 1.10,2013-02-24 11:48:00,
2013-02-24 07:03:00,31.8,30.0,29.83,NW,311,1.0,-999.0,92,-99.99,,,0.03,0,weatherlink.com 1.10,2013-02-24 12:03:00,
2013-02-24 07:18:00,31.3,29.0,29.84,North,360,0.0,-999.0,92,-99.99,,,0.03,5,weatherlink.com 1.10,2013-02-24 12:18:00,
2013-02-24 07:33:00,31.0,29.0,29.84,North,5,1.0,-999.0,92,-99.99,,,0.03,11,weatherlink.com 1.10,2013-02-24 12:33:00,
2013-02-24 07:48:00,30.7,29.0,29.84,West,265,3.0,-999.0,92,-99.99,,,0.03,9,weatherlink.com 1.10,2013-02-24 12:48:00,
2013-02-24 08:03:00,30.2,28.0,29.84,West,267,0.0,-999.0,92,-99.99,,,0.03,7,weatherlink.com 1.10,2013-02-24 13:03:00,
2013-02-24 08:18:00,29.8,28.0,29.84,NNW,331,0.0,-999.0,92,-99.99,,,0.03,19,weatherlink.com 1.10,2013-02-24 13:18:00,
2013-02-24 08:33:00,29.2,27.0,29.84,West,280,1.0,-999.0,92,-99.99,,,0.03,46,weatherlink.com 1.10,2013-02-24 13:33:00,
2013-02-24 08:48:00,29.2,27.0,29.84,West,275,1.0,-999.0,92,-99.99,,,0.03,53,weatherlink.com 1.10,2013-02-24 13:48:00,
2013-02-24 09:03:00,29.2,27.0,29.84,WNW,282,1.0,-999.0,92,-99.99,,,0.03,72,weatherlink.com 1.10,2013-02-24 14:03:00,
2013-02-24 09:18:00,29.5,28.0,29.84,South,191,1.0,-999.0,92,-99.99,,,0.03,65,weatherlink.com 1.10,2013-02-24 14:18:00,
2013-02-24 09:33:00,29.4,27.0,29.84,WNW,282,0.0,-999.0,92,-99.99,,,0.03,72,weatherlink.com 1.10,2013-02-24 14:33:00,
2013-02-24 09:48:00,29.6,28.0,29.83,West,267,0.0,-999.0,92,-99.99,,,0.03,111,weatherlink.com 1.10,2013-02-24 14:48:00,
2013-02-24 10:03:00,29.9,28.0,29.84,WNW,286,0.0,-999.0,91,-99.99,,,0.03,134,weatherlink.com 1.10,2013-02-24 15:03:00,
2013-02-24 10:18:00,30.4,28.0,29.83,WNW,292,1.0,-999.0,90,-99.99,,,0.03,179,weatherlink.com 1.10,2013-02-24 15:18:00,
2013-02-24 10:33:00,30.8,28.0,29.84,WNW,282,1.0,-999.0,88,-99.99,,,0.04,188,weatherlink.com 1.10,2013-02-24 15:33:00,
2013-02-24 10:48:00,31.1,27.0,29.83,NW,322,0.0,-999.0,86,-99.99,,,0.04,218,weatherlink.com 1.10,2013-02-24 15:48:00,
2013-02-24 11:03:00,31.3,28.0,29.83,WNW,300,2.0,-999.0,86,-99.99,,,0.04,209,weatherlink.com 1.10,2013-02-24 16:03:00,
2013-02-24 11:18:00,31.5,27.0,29.84,WNW,284,4.0,-999.0,84,-99.99,,,0.04,186,weatherlink.com 1.10,2013-02-24 16:18:00,
2013-02-24 11:33:00,31.4,27.0,29.83,WSW,244,5.0,-999.0,83,-99.99,,,0.04,179,weatherlink.com 1.10,2013-02-24 16:33:00,
2013-02-24 11:48:00,31.5,27.0,29.83,NNW,336,3.0,-999.0,82,-99.99,,,0.04,179,weatherlink.com 1.10,2013-02-24 16:48:00,
2013-02-24 12:03:00,31.4,26.0,29.83,WNW,284,3.0,-999.0,81,-99.99,,,0.04,130,weatherlink.com 1.10,2013-02-24 17:03:00,
2013-02-24 12:18:00,31.2,26.0,29.83,WNW,299,4.0,-999.0,82,-99.99,,,0.04,132,weatherlink.com 1.10,2013-02-24 17:18:00,
2013-02-24 12:33:00,30.9,26.0,29.83,WNW,284,6.0,-999.0,81,-99.99,,,0.04,98,weatherlink.com 1.10,2013-02-24 17:33:00,
2013-02-24 12:48:00,30.7,26.0,29.83,WNW,297,1.0,-999.0,81,-99.99,,,0.04,37,weatherlink.com 1.10,2013-02-24 17:48:00,
2013-02-24 13:03:00,30.2,25.0,29.84,WNW,292,9.0,-999.0,81,-99.99,,,0.04,54,weatherlink.com 1.10,2013-02-24 18:03:00,
2013-02-24 13:18:00,29.9,25.0,29.83,NW,311,1.0,-999.0,81,-99.99,,,0.04,70,weatherlink.com 1.10,2013-02-24 18:18:00,
2013-02-24 13:33:00,29.8,25.0,29.83,WNW,300,4.0,-999.0,81,-99.99,,,0.04,44,weatherlink.com 1.10,2013-02-24 18:33:00,
2013-02-24 13:48:00,29.4,24.0,29.84,West,277,5.0,-999.0,81,-99.99,,,0.04,46,weatherlink.com 1.10,2013-02-24 18:48:00,
2013-02-24 14:03:00,29.0,24.0,29.84,West,277,5.0,-999.0,81,-99.99,,,0.04,56,weatherlink.com 1.10,2013-02-24 19:03:00,
2013-02-24 14:18:00,28.8,24.0,29.84,NW,317,6.0,-999.0,82,-99.99,,,0.04,81,weatherlink.com 1.10,2013-02-24 19:18:00,
2013-02-24 14:33:00,28.7,24.0,29.84,NNW,347,4.0,-999.0,81,-99.99,,,0.04,67,weatherlink.com 1.10,2013-02-24 19:33:00,
2013-02-24 14:48:00,28.4,23.0,29.84,NNW,327,0.0,-999.0,80,-99.99,,,0.04,244,weatherlink.com 1.10,2013-02-24 19:48:00,
2013-02-24 15:03:00,28.8,23.0,29.85,NNW,329,4.0,-999.0,78,-99.99,,,0.04,40,weatherlink.com 1.10,2013-02-24 20:03:00,
2013-02-24 15:18:00,28.6,23.0,29.85,WSW,250,0.0,-999.0,79,-99.99,,,0.04,153,weatherlink.com 1.10,2013-02-24 20:18:00,
2013-02-24 15:33:00,28.5,22.0,29.86,West,277,3.0,-999.0,77,-99.99,,,0.04,181,weatherlink.com 1.10,2013-02-24 20:33:00,
2013-02-24 15:48:00,28.3,21.0,29.86,SW,227,12.0,-999.0,74,-99.99,,,0.04,86,weatherlink.com 1.10,2013-02-24 20:48:00,
2013-02-24 16:03:00,28.1,21.0,29.87,NW,320,2.0,-999.0,76,-99.99,,,0.04,58,weatherlink.com 1.10,2013-02-24 21:03:00,
2013-02-24 16:18:00,27.6,22.0,29.87,NNW,348,6.0,-999.0,79,-99.99,,,0.04,60,weatherlink.com 1.10,2013-02-24 21:18:00,
2013-02-24 16:34:00,27.4,22.0,29.88,WNW,289,0.0,-999.0,80,-99.99,,,0.04,35,weatherlink.com 1.10,2013-02-24 21:34:00,
2013-02-24 16:48:00,27.2,22.0,29.89,West,269,3.0,-999.0,82,-99.99,,,0.04,23,weatherlink.com 1.10,2013-02-24 21:48:00,
2013-02-24 17:03:00,26.7,23.0,29.90,NW,311,4.0,-999.0,84,-99.99,,,0.04,12,weatherlink.com 1.10,2013-02-24 22:03:00,
2013-02-24 17:18:00,26.2,22.0,29.90,WNW,296,1.0,-999.0,85,-99.99,,,0.04,7,weatherlink.com 1.10,2013-02-24 22:18:00,
2013-02-24 17:33:00,26.0,22.0,29.91,West,279,2.0,-999.0,86,-99.99,,,0.04,0,weatherlink.com 1.10,2013-02-24 22:33:00,
2013-02-24 17:48:00,25.9,23.0,29.92,WNW,282,0.0,-999.0,87,-99.99,,,0.04,0,weatherlink.com 1.10,2013-02-24 22:48:00,
2013-02-24 18:03:00,25.8,23.0,29.93,WSW,242,0.0,-999.0,87,-99.99,,,0.04,0,weatherlink.com 1.10,2013-02-24 23:03:00,
2013-02-24 18:18:00,25.9,23.0,29.93,WSW,249,1.0,-999.0,88,-99.99,,,0.04,0,weatherlink.com 1.10,2013-02-24 23:18:00,
2013-02-24 18:33:00,26.1,23.0,29.94,West,266,3.0,-999.0,88,-99.99,,,0.04,0,weatherlink.com 1.10,2013-02-24 23:33:00,
2013-02-24 18:48:00,26.1,23.0,29.95,NW,314,5.0,-999.0,88,-99.99,,,0.04,0,weatherlink.com 1.10,2013-02-24 23:48:00,
2013-02-24 19:03:00,26.0,23.0,29.96,WSW,257,3.0,-999.0,88,-99.99,,,0.04,0,weatherlink.com 1.10,2013-02-25 00:03:00,
2013-02-24 19:33:00,25.9,23.0,29.97,West,271,6.0,-999.0,89,-99.99,,,0.04,0,weatherlink.com 1.10,2013-02-25 00:33:00,
2013-02-24 19:48:00,25.8,23.0,29.98,WNW,283,3.0,-999.0,88,-99.99,,,0.04,0,weatherlink.com 1.10,2013-02-25 00:48:00,
2013-02-24 20:03:00,25.9,23.0,29.98,NW,306,1.0,-999.0,87,-99.99,,,0.04,0,weatherlink.com 1.10,2013-02-25 01:03:00,
2013-02-24 20:18:00,25.9,22.0,29.99,WNW,301,0.0,-999.0,85,-99.99,,,0.04,0,weatherlink.com 1.10,2013-02-25 01:18:00,
2013-02-24 20:33:00,26.0,22.0,29.99,NNW,332,3.0,-999.0,84,-99.99,,,0.04,0,weatherlink.com 1.10,2013-02-25 01:33:00,
2013-02-24 20:48:00,26.1,22.0,30.00,NW,317,5.0,-999.0,83,-99.99,,,0.04,0,weatherlink.com 1.10,2013-02-25 01:48:00,
2013-02-24 21:03:00,26.2,22.0,30.00,WNW,295,1.0,-999.0,83,-99.99,,,0.04,0,weatherlink.com 1.10,2013-02-25 02:03:00,
2013-02-24 21:18:00,26.2,22.0,30.00,West,274,11.0,-999.0,83,-99.99,,,0.04,0,weatherlink.com 1.10,2013-02-25 02:18:00,
2013-02-24 21:33:00,26.1,22.0,30.01,NW,326,0.0,-999.0,83,-99.99,,,0.04,0,weatherlink.com 1.10,2013-02-25 02:33:00,
2013-02-24 21:48:00,25.9,21.0,30.01,West,261,0.0,-999.0,83,-99.99,,,0.04,0,weatherlink.com 1.10,2013-02-25 02:48:00,
2013-02-24 22:03:00,25.8,21.0,30.00,NNW,347,1.0,-999.0,83,-99.99,,,0.04,0,weatherlink.com 1.10,2013-02-25 03:03:00,
2013-02-24 22:18:00,25.9,22.0,30.01,SW,223,7.0,-999.0,84,-99.99,,,0.04,0,weatherlink.com 1.10,2013-02-25 03:18:00,
2013-02-24 22:33:00,26.0,22.0,30.02,West,267,2.0,-999.0,84,-99.99,,,0.04,0,weatherlink.com 1.10,2013-02-25 03:33:00,
2013-02-24 23:03:00,26.0,22.0,30.02,SSE,165,3.0,-999.0,84,-99.99,,,0.04,0,weatherlink.com 1.10,2013-02-25 04:03:00,
2013-02-24 23:18:00,26.0,22.0,30.02,West,269,0.0,-999.0,84,-99.99,,,0.04,0,weatherlink.com 1.10,2013-02-25 04:18:00,
2013-02-24 23:33:00,26.0,22.0,30.03,WSW,251,1.0,-999.0,85,-99.99,,,0.04,0,weatherlink.com 1.10,2013-02-25 04:33:00,
2013-02-24 23:48:00,26.0,22.0,30.03,WSW,244,6.0,-999.0,85,-99.99,,,0.04,0,weatherlink.com 1.10,2013-02-25 04:48:00,